Death Valley, California
Current Conditions -  °F | °C
As of 11:52 PM on Monday 26 Jan 2015 (Local Time) from KDRA Reporting Station
Overcast Overcast  
Wind Chill: 45°   Ceiling: 6000
Heat Index: 49°   Visibility: 10mi
Dew Point: 46°   Wind: 9mph
Humidity: 90%   Direction: 280°W
Pressure: 30.15"   Gusts: NA
Location:  36.46°N, 116.87°W
Report Text: KDRA 270752Z AUTO 28008KT 10SM OVC060 09/08 A3015 RMK AO2 RAB0657E30 SLP184 P0004 T00940078 402110078
Loading
Personal Weather Stations






























Interactive Weather Map New forecast layout! Learn more

10-Day Weather Forecast

Advertisements
Track Severe Weather on mobile